Accueil
METAR-TAF:

METAR-TAF

Aéroports :

Gioia del Colle, Italie

latitude: 40-46N, longitude: 016-56E, altitude: 345 m

Observation

Le bulletin a été fait il y a 45 minutes, à 23:55 UTC
Vent 9 kt de nord-ouest
Température 14°C
Humidité 67%
Pression 1022 hPa
Visibilité 10 km ou plus
pas de nuages en-dessous de 1500 mètres et pas de cumulonimbus.

METAR: LIBV 252355Z 32009KT CAVOK 14/08 Q1022 RMK SKC VIS MIN 9999 WIND THR32 33009KT WIND THR14 32009KT BLU

Heure: 02:40 (00:40 UTC)

Prévision

Le bulletin a été fait il y a 1 heure et 40 minutes, à 23:00 UTC
Prévision valable du 26 à 00 UTC au 26 à 09 UTC
Vent 10 kt de nord/nord-ouest
Visibilité 10 km ou plus
pas de nuages en-dessous de 1500 mètres et pas de cumulonimbus.
Evoluant progressivement
du 26 à 07 UTC au 26 à 09 UTC
Vent 20 kt de nord/nord-ouest avec des rafales jusqu'à 30 kt

TAF: LIBV 252300Z 2600/2609 34010KT CAVOK BECMG 2607/2609 34020G30KT

Observations et prévisions météorologiques de plus de 4000 aéroports (messages METAR et TAF).

Les stations disponibles sont représentées par des disques jaunes et rouges sur la carte.

Passer la souris dessus pour voir le nom de la station.

Cliquer dessus pour voir les observations et prévisions météorologiques.

Pour changer de carte: cliquez sur les boutons verts avec une croix noire pour zoomer, sur le bouton vert avec un tiret pour effectuer un zoom arrière, ou sur les flèches vertes pour les cartes adjacentes.


METAR-TAF: